Stations météo

réclame
Mon MeteoGroup
Cairnwell, Grande-Bretagne (3072): Température de l'air & dewpoint: 01.07.2020 10:00:00 - 07.07.2020 10:00:00 (BST)Cairnwell, Grande-Bretagne (3072): Vitesse du vent & gusts: 01.07.2020 10:00:00 - 07.07.2020 10:00:00 (BST)Cairnwell, Grande-Bretagne (3072): Direction du vent: 01.07.2020 10:00:00 - 07.07.2020 10:00:00 (BST)
Date & Time tt [°C] td [°C] ff [km/h] ff [knt] fx [km/h] fx [knt] dd
07.07.2020 10:00:00 5,2 2,4 31 17 50 27 WNW
07.07.2020 09:00:00 4,3 3,2 35 19 54 29 WNW
07.07.2020 08:00:00 3,8 3,4 46 25 65 35 WNW
07.07.2020 07:00:00 3,5 3,5 31 17 48 26 WNW
07.07.2020 06:00:00 3,6 3,6 31 17 67 36 NW
07.07.2020 05:00:00 3,7 3,3 55 30 74 40 WNW
07.07.2020 04:00:00 4,0 4,0 37 20 55 30 WNW
07.07.2020 03:00:00 4,1 4,1 46 25 65 35 WNW
07.07.2020 02:00:00 4,3 3,9 52 28 74 40 WNW
07.07.2020 01:00:00 4,6 3,4 63 34 96 52 WNW
07.07.2020 00:00:00 4,3 4,0 61 33 87 47 W
06.07.2020 23:00:00 4,5 3,8 61 33 83 45 W
06.07.2020 22:00:00 4,5 3,4 63 34 85 46 WNW
06.07.2020 21:00:00 4,8 2,8 41 22 87 47 WNW
06.07.2020 20:00:00 5,3 2,5 59 32 81 44 W
06.07.2020 19:00:00 6,0 2,2 52 28 89 48 W
06.07.2020 18:00:00 6,7 2,4 52 28 65 35 W
06.07.2020 17:00:00 6,7 2,3 52 28 83 45 W
06.07.2020 16:00:00 7,8 2,1 54 29 81 44 WNW
06.07.2020 15:00:00 6,5 1,1 54 29 74 40 WNW
06.07.2020 14:00:00 6,1 1,4 46 25 63 34 WNW
06.07.2020 13:00:00 6,3 1,3 52 28 70 38 WNW
06.07.2020 12:00:00 5,2 2,2 50 27 78 42 NW
06.07.2020 11:00:00 4,6 3,2 59 32 72 39 NW
06.07.2020 10:00:00 4,6 3,5 57 31 72 39 NW
06.07.2020 09:00:00 4,3 3,5 57 31 78 42 NW
06.07.2020 08:00:00 4,0 4,0 54 29 87 47 NNW
06.07.2020 07:00:00 3,7 3,7 63 34 91 49 NNW
06.07.2020 06:00:00 3,9 3,9 72 39 93 50 NW
06.07.2020 05:00:00 3,9 3,9 74 40 93 50 NNW
06.07.2020 04:00:00 4,0 4,0 65 35 87 47 NNW
06.07.2020 03:00:00 3,9 3,9 70 38 81 44 NW
06.07.2020 02:00:00 3,9 3,9 52 28 63 34 WNW
06.07.2020 01:00:00 3,9 3,9 50 27 70 38 WNW
06.07.2020 00:00:00 3,8 3,8 52 28 78 42 WNW
05.07.2020 23:00:00 4,0 3,5 50 27 78 42 WNW
05.07.2020 22:00:00 4,2 3,8 52 28 72 39 WNW
05.07.2020 21:00:00 4,6 3,2 48 26 68 37 WNW
05.07.2020 20:00:00 5,4 3,6 55 30 76 41 WNW
05.07.2020 19:00:00 5,3 4,3 39 21 70 38 W
05.07.2020 18:00:00 5,1 4,1 39 21 54 29 W
05.07.2020 17:00:00 5,7 2,8 46 25 74 40 W
05.07.2020 16:00:00 5,8 2,5 35 19 81 44 W
05.07.2020 15:00:00 5,5 3,1 57 31 96 52 W
05.07.2020 14:00:00 5,0 2,6 50 27 81 44 W
05.07.2020 13:00:00 4,8 3,0 54 29 81 44 W
05.07.2020 12:00:00 5,7 1,8 46 25 74 40 W
05.07.2020 11:00:00 5,2 3,2 44 24 81 44 W
05.07.2020 10:00:00 5,2 3,8 52 28 83 45 W
05.07.2020 09:00:00 5,2 2,9 55 30 89 48 W
05.07.2020 08:00:00 5,4 4,2 59 32 80 43 W
05.07.2020 07:00:00 4,9 4,9 41 22 67 36 W
05.07.2020 06:00:00 4,9 4,9 39 21 52 28 NW
05.07.2020 05:00:00 5,4 5,4 34 18 48 26 NNW
05.07.2020 04:00:00 6,7 6,7 31 17 78 42 W
05.07.2020 03:00:00 7,5 7,5 46 25 65 35 WSW
05.07.2020 02:00:00 7,3 7,3 31 17 - - SW
05.07.2020 01:00:00 7,2 7,2 28 15 70 38 S
05.07.2020 00:00:00 6,3 6,3 22 12 - - SE
04.07.2020 23:00:00 6,2 6,2 21 11 - - S
04.07.2020 22:00:00 6,9 6,9 29 16 - - S
04.07.2020 21:00:00 6,6 6,6 24 13 - - SSW
04.07.2020 20:00:00 7,0 6,6 28 15 - - SW
04.07.2020 19:00:00 7,2 6,7 29 16 - - SW
04.07.2020 18:00:00 7,7 6,0 28 15 - - WSW
04.07.2020 17:00:00 7,3 5,4 37 20 55 30 WSW
04.07.2020 16:00:00 7,4 5,2 39 21 48 26 WSW
04.07.2020 15:00:00 6,6 4,8 29 16 - - W
04.07.2020 14:00:00 5,7 5,4 28 15 - - WSW
04.07.2020 13:00:00 6,1 3,8 26 14 - - WSW
04.07.2020 12:00:00 6,0 3,0 21 11 - - SW
04.07.2020 11:00:00 6,0 4,0 21 11 - - WSW
04.07.2020 10:00:00 5,8 3,7 21 11 - - SW
04.07.2020 09:00:00 6,0 1,8 18 10 - - S
04.07.2020 08:00:00 5,8 1,2 13 7 - - SW
04.07.2020 07:00:00 6,1 1,8 4 2 - - S
04.07.2020 06:00:00 6,0 1,6 13 7 - - SW
04.07.2020 05:00:00 6,1 2,6 15 8 - - SSW
04.07.2020 04:00:00 6,6 2,8 11 6 - - S
04.07.2020 03:00:00 6,8 2,8 11 6 - - S
04.07.2020 02:00:00 5,9 3,4 8 4 - - WNW
04.07.2020 01:00:00 5,8 3,3 21 11 - - WNW
04.07.2020 00:00:00 5,1 4,0 22 12 - - NW
03.07.2020 23:00:00 5,0 4,9 24 13 61 33 WNW
03.07.2020 22:00:00 5,3 4,8 52 28 65 35 WNW
03.07.2020 21:00:00 5,3 5,0 41 22 63 34 WNW
03.07.2020 20:00:00 5,6 5,1 52 28 63 34 WNW
03.07.2020 19:00:00 5,8 5,5 34 18 50 27 WNW
03.07.2020 18:00:00 6,0 4,9 35 19 54 29 W
03.07.2020 17:00:00 6,2 6,1 22 12 57 31 W
03.07.2020 16:00:00 7,0 6,8 24 13 - - SW
03.07.2020 15:00:00 6,6 6,4 16 9 - - SSW
03.07.2020 14:00:00 6,3 6,0 26 14 - - SW
03.07.2020 13:00:00 5,7 5,1 26 14 - - SSW
03.07.2020 12:00:00 5,2 5,1 29 16 - - SSW
03.07.2020 11:00:00 4,5 4,5 31 17 - - S
03.07.2020 10:00:00 4,2 4,1 26 14 - - S
03.07.2020 09:00:00 3,5 3,5 29 16 - - SSW
03.07.2020 08:00:00 3,1 3,1 26 14 - - SSW
03.07.2020 07:00:00 2,4 2,4 24 13 - - SSW
03.07.2020 06:00:00 2,1 2,1 24 13 - - WSW
03.07.2020 05:00:00 2,4 1,9 34 18 - - W
03.07.2020 04:00:00 2,4 2,3 11 6 - - SSW
03.07.2020 03:00:00 2,8 1,7 8 4 - - S
03.07.2020 02:00:00 3,4 2,4 15 8 - - SSW
03.07.2020 01:00:00 3,9 3,5 18 10 - - WSW
03.07.2020 00:00:00 4,9 4,0 21 11 - - WSW
02.07.2020 23:00:00 5,4 3,9 21 11 - - WSW
02.07.2020 22:00:00 6,1 4,1 26 14 - - W
02.07.2020 21:00:00 6,7 5,0 29 16 48 26 WSW
02.07.2020 20:00:00 6,8 5,2 39 21 52 28 WSW
02.07.2020 19:00:00 7,3 5,4 29 16 - - SW
02.07.2020 18:00:00 7,1 3,9 24 13 - - SSW
02.07.2020 17:00:00 7,3 3,7 29 16 - - SW
02.07.2020 16:00:00 6,8 2,8 16 9 - - SSW
02.07.2020 15:00:00 6,0 4,5 16 9 - - SW
02.07.2020 14:00:00 6,4 2,5 22 12 - - WSW
02.07.2020 13:00:00 5,6 2,8 22 12 - - SSW
02.07.2020 12:00:00 5,6 1,6 8 4 - - WSW
02.07.2020 11:00:00 4,5 3,4 13 7 - - SSW
02.07.2020 10:00:00 4,3 2,0 8 4 - - SSW
02.07.2020 09:00:00 3,8 2,4 8 4 - - SW
02.07.2020 08:00:00 3,6 2,4 5 3 - - WNW
02.07.2020 07:00:00 3,1 2,7 5 3 - - WSW
02.07.2020 06:00:00 3,2 1,5 5 3 - - NW
02.07.2020 05:00:00 3,2 2,4 8 4 - - WNW
02.07.2020 04:00:00 3,4 3,4 5 3 - - WSW
02.07.2020 03:00:00 3,4 2,9 8 4 - - NW
02.07.2020 02:00:00 3,4 2,9 4 2 - - N
02.07.2020 01:00:00 3,5 2,9 8 4 - - N
02.07.2020 00:00:00 4,0 3,6 8 4 - - NNE
01.07.2020 23:00:00 3,9 3,5 9 5 - - NE
01.07.2020 22:00:00 4,4 3,5 15 8 - - NE
01.07.2020 21:00:00 4,5 3,4 15 8 - - NE
01.07.2020 20:00:00 4,6 3,3 24 13 - - NNE
01.07.2020 19:00:00 4,6 3,8 26 14 - - NNE
01.07.2020 18:00:00 4,5 3,7 34 18 - - NNE
01.07.2020 17:00:00 4,2 3,7 35 19 - - NNE
01.07.2020 16:00:00 4,0 3,6 37 20 48 26 NNE
01.07.2020 15:00:00 4,6 3,3 35 19 46 25 NNE
01.07.2020 14:00:00 4,0 3,2 39 21 48 26 NNE
01.07.2020 13:00:00 4,2 3,5 39 21 52 28 NNE
01.07.2020 12:00:00 4,5 3,9 42 23 52 28 NNE
01.07.2020 11:00:00 5,0 4,5 42 23 52 28 NE
01.07.2020 10:00:00 5,2 4,9 39 21 50 27 NE

tt = Température de l'air
td = dewpoint
ff = Vitesse du vent
fx = gusts
dd = Direction du vent

stations d'obs. à proximité